Date,TemperatureHighF,TemperatureAvgF,TemperatureLowF,DewpointHighF,DewpointAvgF,DewpointLowF,HumidityHigh,HumidityAvg,HumidityLow,PressureMaxIn,PressureMinIn,WindSpeedMaxMPH,WindSpeedAvgMPH,GustSpeedMaxMPH,PrecipitationSumIn
2013-4-1,46,39,33,28,26,25,74,62,47,29.87,29.62,10,4,15,0.00
2013-4-2,45,40,37,38,30,25,88,68,57,29.86,29.60,17,5,20,0.24
2013-4-3,45,42,40,42,38,35,90,87,84,29.72,29.57,20,4,20,0.16
2013-4-4,46,41,38,36,34,32,84,76,69,29.85,29.70,10,3,12,0.00
2013-4-5,44,42,38,40,37,33,88,83,74,29.83,29.61,12,3,15,0.10
2013-4-6,50,44,40,40,36,32,87,74,60,29.98,29.68,12,3,15,0.00
2013-4-7,48,43,39,37,34,31,83,71,61,30.00,29.89,12,2,12,0.00
2013-4-8,54,46,40,36,30,25,69,54,41,29.92,29.79,10,2,15,0.00
2013-4-9,54,48,43,42,39,36,80,71,61,29.80,29.73,8,1,11,0.00
2013-4-10,59,51,46,46,42,38,88,73,52,29.89,29.73,13,2,13,0.02
2013-4-11,66,54,42,46,41,36,78,63,45,29.92,29.78,13,2,15,0.00
2013-4-12,67,57,51,51,46,43,83,68,48,29.82,29.69,22,5,29,0.00
2013-4-13,65,55,48,46,42,39,82,65,42,30.21,29.81,15,3,15,0.00
2013-4-14,65,57,46,41,38,34,75,51,34,30.33,30.21,13,3,13,0.00
2013-4-15,66,56,45,41,38,35,75,54,36,30.34,30.22,6,0,8,0.00
2013-4-16,72,58,46,41,37,34,67,47,31,30.28,30.17,5,0,10,0.00
2013-4-17,77,60,46,44,40,37,69,49,28,30.24,30.14,8,0,10,0.00
2013-4-18,77,68,50,47,42,40,73,42,27,30.21,30.06,7,0,9,0.00
2013-4-19,79,66,52,46,42,40,66,44,29,30.12,29.99,6,0,7,0.00
2013-4-20,79,65,54,52,47,37,82,56,24,30.12,30.03,11,1,11,0.00
2013-4-21,75,65,56,48,45,41,62,50,37,30.13,29.96,13,3,13,0.00
2013-4-22,77,66,54,48,43,38,57,44,33,30.01,29.91,9,1,9,0.00
2013-4-23,75,65,55,52,49,46,75,57,41,30.25,30.01,16,2,16,0.00
2013-4-24,79,67,54,52,46,41,70,48,32,30.34,30.24,15,1,15,0.00
2013-4-25,82,68,53,52,46,42,70,48,28,30.29,30.15,10,1,13,0.00
2013-4-26,84,71,56,53,48,44,71,47,28,30.16,29.78,14,2,16,0.00
2013-4-27,81,71,61,53,49,44,54,46,36,29.78,29.69,21,5,21,0.00
2013-4-28,79,69,60,55,52,49,76,56,43,30.00,29.75,24,4,24,0.00
2013-4-29,84,71,59,55,52,50,71,52,35,30.09,30.00,23,3,23,0.00
2013-4-30,86,74,61,58,54,50,73,50,33,30.12,29.98,12,1,12,0.00